sensor_id;sensor_type;location;lat;lon;timestamp;P1;durP1;ratioP1;P2;durP2;ratioP2
67546;SDS011;54381;53.516;49.424;2022-10-16T00:02:26;13.35;;;4.68;;
67546;SDS011;54381;53.516;49.424;2022-10-16T00:04:58;22.58;;;5.35;;
67546;SDS011;54381;53.516;49.424;2022-10-16T00:07:30;15.38;;;5.32;;
67546;SDS011;54381;53.516;49.424;2022-10-16T00:10:01;12.27;;;5.82;;
67546;SDS011;54381;53.516;49.424;2022-10-16T00:12:33;15.35;;;7.22;;
67546;SDS011;54381;53.516;49.424;2022-10-16T00:15:04;11.00;;;6.97;;
67546;SDS011;54381;53.516;49.424;2022-10-16T00:17:37;16.40;;;8.23;;
67546;SDS011;54381;53.516;49.424;2022-10-16T00:20:08;17.38;;;8.55;;
67546;SDS011;54381;53.516;49.424;2022-10-16T00:22:40;16.67;;;9.32;;
67546;SDS011;54381;53.516;49.424;2022-10-16T00:25:11;17.67;;;9.32;;
67546;SDS011;54381;53.516;49.424;2022-10-16T00:27:43;23.05;;;9.85;;
67546;SDS011;54381;53.516;49.424;2022-10-16T00:30:14;17.38;;;9.68;;
67546;SDS011;54381;53.516;49.424;2022-10-16T00:32:46;21.17;;;9.50;;
67546;SDS011;54381;53.516;49.424;2022-10-16T00:35:17;17.60;;;9.32;;
67546;SDS011;54381;53.516;49.424;2022-10-16T00:37:49;22.92;;;9.50;;
67546;SDS011;54381;53.516;49.424;2022-10-16T00:40:20;25.73;;;9.05;;
67546;SDS011;54381;53.516;49.424;2022-10-16T00:42:51;16.88;;;8.20;;
67546;SDS011;54381;53.516;49.424;2022-10-16T00:45:23;17.27;;;8.48;;
67546;SDS011;54381;53.516;49.424;2022-10-16T00:47:55;18.38;;;8.48;;
67546;SDS011;54381;53.516;49.424;2022-10-16T00:50:31;17.25;;;7.97;;
67546;SDS011;54381;53.516;49.424;2022-10-16T00:53:04;23.00;;;8.55;;
67546;SDS011;54381;53.516;49.424;2022-10-16T00:55:36;15.93;;;8.50;;
67546;SDS011;54381;53.516;49.424;2022-10-16T00:58:07;17.63;;;8.45;;
67546;SDS011;54381;53.516;49.424;2022-10-16T01:00:40;15.70;;;8.20;;
67546;SDS011;54381;53.516;49.424;2022-10-16T01:03:31;21.42;;;7.90;;
67546;SDS011;54381;53.516;49.424;2022-10-16T01:09:45;15.43;;;7.30;;
67546;SDS011;54381;53.516;49.424;2022-10-16T01:15:10;16.55;;;7.28;;
67546;SDS011;54381;53.516;49.424;2022-10-16T01:17:54;27.67;;;7.10;;
67546;SDS011;54381;53.516;49.424;2022-10-16T01:20:33;20.45;;;8.40;;
67546;SDS011;54381;53.516;49.424;2022-10-16T01:28:55;20.63;;;8.02;;
67546;SDS011;54381;53.516;49.424;2022-10-16T01:31:49;22.42;;;8.63;;
67546;SDS011;54381;53.516;49.424;2022-10-16T01:34:37;18.88;;;8.57;;
67546;SDS011;54381;53.516;49.424;2022-10-16T01:37:15;23.30;;;9.18;;
67546;SDS011;54381;53.516;49.424;2022-10-16T01:39:55;50.42;;;10.35;;
67546;SDS011;54381;53.516;49.424;2022-10-16T01:42:34;39.15;;;9.45;;
67546;SDS011;54381;53.516;49.424;2022-10-16T01:45:08;30.85;;;8.88;;
67546;SDS011;54381;53.516;49.424;2022-10-16T01:47:44;19.80;;;8.65;;
67546;SDS011;54381;53.516;49.424;2022-10-16T01:50:17;22.38;;;9.05;;
67546;SDS011;54381;53.516;49.424;2022-10-16T01:52:51;20.75;;;7.95;;
67546;SDS011;54381;53.516;49.424;2022-10-16T01:55:26;25.40;;;8.98;;
67546;SDS011;54381;53.516;49.424;2022-10-16T01:58:02;17.23;;;8.60;;
67546;SDS011;54381;53.516;49.424;2022-10-16T02:00:39;14.57;;;7.63;;
67546;SDS011;54381;53.516;49.424;2022-10-16T02:03:14;19.23;;;8.18;;
67546;SDS011;54381;53.516;49.424;2022-10-16T02:05:58;16.98;;;8.15;;
67546;SDS011;54381;53.516;49.424;2022-10-16T02:08:29;16.17;;;7.88;;
67546;SDS011;54381;53.516;49.424;2022-10-16T02:11:02;24.23;;;7.72;;
67546;SDS011;54381;53.516;49.424;2022-10-16T02:13:37;15.35;;;7.97;;
67546;SDS011;54381;53.516;49.424;2022-10-16T02:16:12;14.32;;;7.85;;
67546;SDS011;54381;53.516;49.424;2022-10-16T02:18:45;14.18;;;7.43;;
67546;SDS011;54381;53.516;49.424;2022-10-16T02:21:26;16.35;;;7.45;;
67546;SDS011;54381;53.516;49.424;2022-10-16T02:24:11;18.92;;;7.70;;
67546;SDS011;54381;53.516;49.424;2022-10-16T02:29:40;18.42;;;8.10;;
67546;SDS011;54381;53.516;49.424;2022-10-16T02:32:16;16.38;;;8.05;;
67546;SDS011;54381;53.516;49.424;2022-10-16T02:34:52;17.42;;;8.15;;
67546;SDS011;54381;53.516;49.424;2022-10-16T02:37:24;35.78;;;8.40;;
67546;SDS011;54381;53.516;49.424;2022-10-16T02:39:56;35.50;;;8.13;;
67546;SDS011;54381;53.516;49.424;2022-10-16T02:42:32;19.83;;;7.55;;
67546;SDS011;54381;53.516;49.424;2022-10-16T02:45:05;22.60;;;8.15;;
67546;SDS011;54381;53.516;49.424;2022-10-16T02:47:38;22.55;;;8.05;;
67546;SDS011;54381;53.516;49.424;2022-10-16T02:50:09;19.52;;;8.13;;
67546;SDS011;54381;53.516;49.424;2022-10-16T02:52:41;21.17;;;7.63;;
67546;SDS011;54381;53.516;49.424;2022-10-16T02:55:13;27.63;;;8.10;;
67546;SDS011;54381;53.516;49.424;2022-10-16T02:57:44;15.77;;;7.65;;
67546;SDS011;54381;53.516;49.424;2022-10-16T03:00:16;18.83;;;8.02;;
67546;SDS011;54381;53.516;49.424;2022-10-16T03:02:48;22.63;;;8.18;;
67546;SDS011;54381;53.516;49.424;2022-10-16T03:05:20;28.40;;;8.23;;
67546;SDS011;54381;53.516;49.424;2022-10-16T03:07:51;26.60;;;8.35;;
67546;SDS011;54381;53.516;49.424;2022-10-16T03:10:23;41.88;;;8.60;;
67546;SDS011;54381;53.516;49.424;2022-10-16T03:12:54;33.00;;;8.77;;
67546;SDS011;54381;53.516;49.424;2022-10-16T03:15:26;30.10;;;8.85;;
67546;SDS011;54381;53.516;49.424;2022-10-16T03:17:58;21.50;;;8.70;;
67546;SDS011;54381;53.516;49.424;2022-10-16T03:20:30;27.35;;;8.68;;
67546;SDS011;54381;53.516;49.424;2022-10-16T03:23:02;30.10;;;9.65;;
67546;SDS011;54381;53.516;49.424;2022-10-16T03:25:33;30.80;;;9.65;;
67546;SDS011;54381;53.516;49.424;2022-10-16T03:28:05;21.00;;;7.95;;
67546;SDS011;54381;53.516;49.424;2022-10-16T03:30:36;18.98;;;8.30;;
67546;SDS011;54381;53.516;49.424;2022-10-16T03:33:10;27.60;;;8.73;;
67546;SDS011;54381;53.516;49.424;2022-10-16T03:35:42;35.05;;;9.63;;
67546;SDS011;54381;53.516;49.424;2022-10-16T03:38:23;23.75;;;8.32;;
67546;SDS011;54381;53.516;49.424;2022-10-16T03:40:54;25.50;;;9.32;;
67546;SDS011;54381;53.516;49.424;2022-10-16T03:43:26;30.58;;;9.75;;
67546;SDS011;54381;53.516;49.424;2022-10-16T03:45:57;38.47;;;9.50;;
67546;SDS011;54381;53.516;49.424;2022-10-16T03:48:29;25.13;;;8.27;;
67546;SDS011;54381;53.516;49.424;2022-10-16T03:51:00;21.38;;;8.40;;
67546;SDS011;54381;53.516;49.424;2022-10-16T03:53:32;41.67;;;8.70;;
67546;SDS011;54381;53.516;49.424;2022-10-16T03:56:03;114.85;;;11.63;;
67546;SDS011;54381;53.516;49.424;2022-10-16T03:58:35;36.80;;;8.60;;
67546;SDS011;54381;53.516;49.424;2022-10-16T04:01:07;32.17;;;8.52;;
67546;SDS011;54381;53.516;49.424;2022-10-16T04:03:38;38.20;;;8.63;;
67546;SDS011;54381;53.516;49.424;2022-10-16T04:06:10;28.88;;;9.05;;
67546;SDS011;54381;53.516;49.424;2022-10-16T04:08:44;72.15;;;9.88;;
67546;SDS011;54381;53.516;49.424;2022-10-16T04:11:16;59.22;;;9.05;;
67546;SDS011;54381;53.516;49.424;2022-10-16T04:13:47;40.13;;;8.30;;
67546;SDS011;54381;53.516;49.424;2022-10-16T04:16:19;32.63;;;8.45;;
67546;SDS011;54381;53.516;49.424;2022-10-16T04:18:51;26.33;;;8.27;;
67546;SDS011;54381;53.516;49.424;2022-10-16T04:21:22;49.00;;;8.45;;
67546;SDS011;54381;53.516;49.424;2022-10-16T04:23:53;24.38;;;7.70;;
67546;SDS011;54381;53.516;49.424;2022-10-16T04:26:25;293.17;;;15.15;;
67546;SDS011;54381;53.516;49.424;2022-10-16T04:28:56;39.95;;;7.78;;
67546;SDS011;54381;53.516;49.424;2022-10-16T04:31:28;36.40;;;8.40;;
67546;SDS011;54381;53.516;49.424;2022-10-16T04:34:00;22.88;;;7.95;;
67546;SDS011;54381;53.516;49.424;2022-10-16T04:36:31;26.90;;;6.65;;
67546;SDS011;54381;53.516;49.424;2022-10-16T04:39:03;17.98;;;6.35;;
67546;SDS011;54381;53.516;49.424;2022-10-16T04:41:34;14.15;;;6.28;;
67546;SDS011;54381;53.516;49.424;2022-10-16T04:44:06;21.58;;;6.90;;
67546;SDS011;54381;53.516;49.424;2022-10-16T04:46:37;26.17;;;6.43;;
67546;SDS011;54381;53.516;49.424;2022-10-16T04:49:09;15.73;;;5.97;;
67546;SDS011;54381;53.516;49.424;2022-10-16T04:51:40;39.25;;;6.72;;
67546;SDS011;54381;53.516;49.424;2022-10-16T04:54:12;12.20;;;5.50;;
67546;SDS011;54381;53.516;49.424;2022-10-16T04:56:43;13.05;;;6.35;;
67546;SDS011;54381;53.516;49.424;2022-10-16T04:59:18;10.55;;;6.32;;
67546;SDS011;54381;53.516;49.424;2022-10-16T05:01:50;17.30;;;6.43;;
67546;SDS011;54381;53.516;49.424;2022-10-16T05:04:22;16.65;;;10.70;;
67546;SDS011;54381;53.516;49.424;2022-10-16T05:06:53;9.43;;;6.32;;
67546;SDS011;54381;53.516;49.424;2022-10-16T05:09:25;15.88;;;6.40;;
67546;SDS011;54381;53.516;49.424;2022-10-16T05:11:56;13.95;;;7.28;;
67546;SDS011;54381;53.516;49.424;2022-10-16T05:14:28;11.30;;;6.40;;
67546;SDS011;54381;53.516;49.424;2022-10-16T05:16:59;15.52;;;6.28;;
67546;SDS011;54381;53.516;49.424;2022-10-16T05:19:31;11.32;;;5.80;;
67546;SDS011;54381;53.516;49.424;2022-10-16T05:22:03;18.25;;;6.07;;
67546;SDS011;54381;53.516;49.424;2022-10-16T05:24:34;7.50;;;5.47;;
67546;SDS011;54381;53.516;49.424;2022-10-16T05:27:06;14.52;;;5.65;;
67546;SDS011;54381;53.516;49.424;2022-10-16T05:29:37;13.25;;;6.00;;
67546;SDS011;54381;53.516;49.424;2022-10-16T05:32:09;16.30;;;5.50;;
67546;SDS011;54381;53.516;49.424;2022-10-16T05:34:40;137.27;;;8.02;;
67546;SDS011;54381;53.516;49.424;2022-10-16T05:37:12;19.45;;;5.15;;
67546;SDS011;54381;53.516;49.424;2022-10-16T05:39:43;8.93;;;4.07;;
67546;SDS011;54381;53.516;49.424;2022-10-16T05:42:15;8.63;;;5.10;;
67546;SDS011;54381;53.516;49.424;2022-10-16T05:44:46;23.13;;;5.20;;
67546;SDS011;54381;53.516;49.424;2022-10-16T05:47:18;22.00;;;5.88;;
67546;SDS011;54381;53.516;49.424;2022-10-16T05:49:51;8.93;;;5.15;;
67546;SDS011;54381;53.516;49.424;2022-10-16T05:52:24;11.50;;;4.90;;
67546;SDS011;54381;53.516;49.424;2022-10-16T05:54:55;14.32;;;4.93;;
67546;SDS011;54381;53.516;49.424;2022-10-16T05:57:27;6.47;;;3.83;;
67546;SDS011;54381;53.516;49.424;2022-10-16T05:59:58;12.32;;;4.30;;
67546;SDS011;54381;53.516;49.424;2022-10-16T06:02:30;10.95;;;4.78;;
67546;SDS011;54381;53.516;49.424;2022-10-16T06:05:01;12.65;;;4.03;;
67546;SDS011;54381;53.516;49.424;2022-10-16T06:07:34;21.85;;;4.03;;
67546;SDS011;54381;53.516;49.424;2022-10-16T06:10:06;15.25;;;4.53;;
67546;SDS011;54381;53.516;49.424;2022-10-16T06:12:39;10.07;;;3.83;;
67546;SDS011;54381;53.516;49.424;2022-10-16T06:15:11;9.20;;;5.63;;
67546;SDS011;54381;53.516;49.424;2022-10-16T06:17:42;13.80;;;4.45;;
67546;SDS011;54381;53.516;49.424;2022-10-16T06:20:14;21.45;;;5.00;;
67546;SDS011;54381;53.516;49.424;2022-10-16T06:22:45;14.20;;;4.80;;
67546;SDS011;54381;53.516;49.424;2022-10-16T06:25:17;36.03;;;5.45;;
67546;SDS011;54381;53.516;49.424;2022-10-16T06:27:49;11.13;;;4.32;;
67546;SDS011;54381;53.516;49.424;2022-10-16T06:30:20;14.05;;;5.13;;
67546;SDS011;54381;53.516;49.424;2022-10-16T06:32:53;183.20;;;8.35;;
67546;SDS011;54381;53.516;49.424;2022-10-16T06:35:24;17.85;;;4.13;;
67546;SDS011;54381;53.516;49.424;2022-10-16T06:37:56;10.77;;;4.43;;
67546;SDS011;54381;53.516;49.424;2022-10-16T06:40:30;7.43;;;3.80;;
67546;SDS011;54381;53.516;49.424;2022-10-16T06:43:01;8.18;;;3.85;;
67546;SDS011;54381;53.516;49.424;2022-10-16T06:45:33;6.60;;;3.70;;
67546;SDS011;54381;53.516;49.424;2022-10-16T06:48:04;5.97;;;4.13;;
67546;SDS011;54381;53.516;49.424;2022-10-16T06:50:36;104.40;;;7.03;;
67546;SDS011;54381;53.516;49.424;2022-10-16T06:53:07;8.93;;;4.00;;
67546;SDS011;54381;53.516;49.424;2022-10-16T06:55:39;11.00;;;4.30;;
67546;SDS011;54381;53.516;49.424;2022-10-16T06:58:14;11.00;;;4.18;;
67546;SDS011;54381;53.516;49.424;2022-10-16T07:00:45;11.02;;;4.15;;
67546;SDS011;54381;53.516;49.424;2022-10-16T07:03:17;25.60;;;4.55;;
67546;SDS011;54381;53.516;49.424;2022-10-16T07:05:48;23.20;;;5.30;;
67546;SDS011;54381;53.516;49.424;2022-10-16T07:08:20;8.80;;;4.32;;
67546;SDS011;54381;53.516;49.424;2022-10-16T07:11:02;10.48;;;4.05;;
67546;SDS011;54381;53.516;49.424;2022-10-16T07:13:36;13.25;;;4.78;;
67546;SDS011;54381;53.516;49.424;2022-10-16T07:16:12;10.55;;;4.03;;
67546;SDS011;54381;53.516;49.424;2022-10-16T07:18:48;9.88;;;4.68;;
67546;SDS011;54381;53.516;49.424;2022-10-16T07:21:22;9.10;;;3.70;;
67546;SDS011;54381;53.516;49.424;2022-10-16T07:23:55;9.88;;;3.38;;
67546;SDS011;54381;53.516;49.424;2022-10-16T07:29:01;15.45;;;3.10;;
67546;SDS011;54381;53.516;49.424;2022-10-16T07:31:34;31.02;;;3.13;;
67546;SDS011;54381;53.516;49.424;2022-10-16T07:34:05;8.50;;;2.60;;
67546;SDS011;54381;53.516;49.424;2022-10-16T07:36:37;11.05;;;4.50;;
67546;SDS011;54381;53.516;49.424;2022-10-16T07:39:09;15.63;;;3.10;;
67546;SDS011;54381;53.516;49.424;2022-10-16T07:41:40;7.35;;;2.70;;
67546;SDS011;54381;53.516;49.424;2022-10-16T07:44:12;5.18;;;3.00;;
67546;SDS011;54381;53.516;49.424;2022-10-16T07:46:43;5.95;;;3.00;;
67546;SDS011;54381;53.516;49.424;2022-10-16T07:49:15;13.07;;;3.25;;
67546;SDS011;54381;53.516;49.424;2022-10-16T07:51:49;117.57;;;6.88;;
67546;SDS011;54381;53.516;49.424;2022-10-16T07:54:21;6.55;;;3.10;;
67546;SDS011;54381;53.516;49.424;2022-10-16T07:56:52;7.82;;;3.10;;
67546;SDS011;54381;53.516;49.424;2022-10-16T07:59:24;10.95;;;3.47;;
67546;SDS011;54381;53.516;49.424;2022-10-16T08:01:56;19.38;;;3.80;;
67546;SDS011;54381;53.516;49.424;2022-10-16T08:04:27;14.52;;;3.80;;
67546;SDS011;54381;53.516;49.424;2022-10-16T08:06:59;8.00;;;3.63;;
67546;SDS011;54381;53.516;49.424;2022-10-16T08:09:30;7.40;;;3.15;;
67546;SDS011;54381;53.516;49.424;2022-10-16T08:12:02;12.82;;;3.70;;
67546;SDS011;54381;53.516;49.424;2022-10-16T08:14:34;11.73;;;3.15;;
67546;SDS011;54381;53.516;49.424;2022-10-16T08:17:06;6.90;;;3.10;;
67546;SDS011;54381;53.516;49.424;2022-10-16T08:19:37;6.32;;;2.90;;
67546;SDS011;54381;53.516;49.424;2022-10-16T08:22:09;7.60;;;2.58;;
67546;SDS011;54381;53.516;49.424;2022-10-16T08:24:41;5.07;;;2.90;;
67546;SDS011;54381;53.516;49.424;2022-10-16T08:27:12;11.52;;;3.40;;
67546;SDS011;54381;53.516;49.424;2022-10-16T08:29:44;19.25;;;3.33;;
67546;SDS011;54381;53.516;49.424;2022-10-16T08:32:15;5.22;;;2.72;;
67546;SDS011;54381;53.516;49.424;2022-10-16T08:34:47;9.45;;;2.88;;
67546;SDS011;54381;53.516;49.424;2022-10-16T08:37:19;6.25;;;2.75;;
67546;SDS011;54381;53.516;49.424;2022-10-16T08:39:53;15.60;;;3.40;;
67546;SDS011;54381;53.516;49.424;2022-10-16T08:42:35;13.32;;;3.38;;
67546;SDS011;54381;53.516;49.424;2022-10-16T08:48:25;7.30;;;2.90;;
67546;SDS011;54381;53.516;49.424;2022-10-16T08:51:02;14.80;;;2.97;;
67546;SDS011;54381;53.516;49.424;2022-10-16T08:53:37;6.20;;;3.05;;
67546;SDS011;54381;53.516;49.424;2022-10-16T08:56:17;10.20;;;2.60;;
67546;SDS011;54381;53.516;49.424;2022-10-16T08:58:49;7.35;;;3.13;;
67546;SDS011;54381;53.516;49.424;2022-10-16T09:01:23;8.63;;;2.75;;
67546;SDS011;54381;53.516;49.424;2022-10-16T09:04:24;9.43;;;3.10;;
67546;SDS011;54381;53.516;49.424;2022-10-16T09:12:52;61.67;;;3.58;;
67546;SDS011;54381;53.516;49.424;2022-10-16T09:18:32;8.95;;;2.70;;
67546;SDS011;54381;53.516;49.424;2022-10-16T09:21:19;24.23;;;3.28;;
67546;SDS011;54381;53.516;49.424;2022-10-16T09:23:51;6.05;;;2.85;;
67546;SDS011;54381;53.516;49.424;2022-10-16T09:26:23;19.40;;;2.70;;
67546;SDS011;54381;53.516;49.424;2022-10-16T09:28:54;19.63;;;3.40;;
67546;SDS011;54381;53.516;49.424;2022-10-16T09:31:26;9.80;;;3.38;;
67546;SDS011;54381;53.516;49.424;2022-10-16T09:34:00;6.68;;;3.50;;
67546;SDS011;54381;53.516;49.424;2022-10-16T09:36:42;13.80;;;4.00;;
67546;SDS011;54381;53.516;49.424;2022-10-16T09:39:15;13.30;;;3.20;;
67546;SDS011;54381;53.516;49.424;2022-10-16T09:41:47;9.48;;;2.88;;
67546;SDS011;54381;53.516;49.424;2022-10-16T09:52:50;11.10;;;3.20;;
67546;SDS011;54381;53.516;49.424;2022-10-16T09:55:21;66.57;;;4.15;;
67546;SDS011;54381;53.516;49.424;2022-10-16T09:57:53;31.75;;;3.60;;
67546;SDS011;54381;53.516;49.424;2022-10-16T10:00:25;7.10;;;3.03;;
67546;SDS011;54381;53.516;49.424;2022-10-16T10:02:57;6.68;;;2.97;;
67546;SDS011;54381;53.516;49.424;2022-10-16T10:05:32;6.05;;;3.42;;
67546;SDS011;54381;53.516;49.424;2022-10-16T10:08:04;10.18;;;4.28;;
67546;SDS011;54381;53.516;49.424;2022-10-16T10:10:40;59.83;;;5.15;;
67546;SDS011;54381;53.516;49.424;2022-10-16T10:15:51;23.27;;;3.15;;
67546;SDS011;54381;53.516;49.424;2022-10-16T10:18:24;7.90;;;3.35;;
67546;SDS011;54381;53.516;49.424;2022-10-16T10:20:58;38.13;;;3.70;;
67546;SDS011;54381;53.516;49.424;2022-10-16T10:23:31;6.80;;;2.65;;
67546;SDS011;54381;53.516;49.424;2022-10-16T10:26:05;7.40;;;3.40;;
67546;SDS011;54381;53.516;49.424;2022-10-16T10:35:07;22.27;;;2.80;;
67546;SDS011;54381;53.516;49.424;2022-10-16T10:37:51;17.88;;;3.67;;
67546;SDS011;54381;53.516;49.424;2022-10-16T10:40:34;6.47;;;3.47;;
67546;SDS011;54381;53.516;49.424;2022-10-16T10:46:36;43.53;;;3.60;;
67546;SDS011;54381;53.516;49.424;2022-10-16T11:06:04;61.53;;;5.10;;
67546;SDS011;54381;53.516;49.424;2022-10-16T11:08:46;11.75;;;3.05;;
67546;SDS011;54381;53.516;49.424;2022-10-16T11:11:26;11.73;;;2.78;;
67546;SDS011;54381;53.516;49.424;2022-10-16T11:14:25;54.85;;;4.38;;
67546;SDS011;54381;53.516;49.424;2022-10-16T11:17:10;13.45;;;3.20;;
67546;SDS011;54381;53.516;49.424;2022-10-16T11:23:02;13.88;;;3.63;;
67546;SDS011;54381;53.516;49.424;2022-10-16T11:28:23;69.05;;;5.00;;
67546;SDS011;54381;53.516;49.424;2022-10-16T11:37:12;6.30;;;3.15;;
67546;SDS011;54381;53.516;49.424;2022-10-16T11:39:48;22.70;;;3.65;;
67546;SDS011;54381;53.516;49.424;2022-10-16T11:42:27;84.32;;;5.32;;
67546;SDS011;54381;53.516;49.424;2022-10-16T11:48:02;46.25;;;5.18;;
67546;SDS011;54381;53.516;49.424;2022-10-16T11:53:34;11.43;;;4.00;;
67546;SDS011;54381;53.516;49.424;2022-10-16T11:56:29;32.88;;;4.28;;
67546;SDS011;54381;53.516;49.424;2022-10-16T11:59:05;21.25;;;3.85;;
67546;SDS011;54381;53.516;49.424;2022-10-16T12:07:48;11.45;;;3.28;;
67546;SDS011;54381;53.516;49.424;2022-10-16T12:10:23;31.08;;;4.35;;
67546;SDS011;54381;53.516;49.424;2022-10-16T12:18:44;12.38;;;3.20;;
67546;SDS011;54381;53.516;49.424;2022-10-16T12:21:17;41.20;;;3.78;;
67546;SDS011;54381;53.516;49.424;2022-10-16T12:23:56;11.93;;;3.40;;
67546;SDS011;54381;53.516;49.424;2022-10-16T12:26:30;16.60;;;3.95;;
67546;SDS011;54381;53.516;49.424;2022-10-16T12:29:14;22.08;;;3.90;;
67546;SDS011;54381;53.516;49.424;2022-10-16T12:34:58;17.52;;;3.83;;
67546;SDS011;54381;53.516;49.424;2022-10-16T12:37:34;239.40;;;12.02;;
67546;SDS011;54381;53.516;49.424;2022-10-16T12:40:15;39.25;;;4.47;;
67546;SDS011;54381;53.516;49.424;2022-10-16T12:42:56;95.97;;;5.45;;
67546;SDS011;54381;53.516;49.424;2022-10-16T12:45:29;104.72;;;6.57;;
67546;SDS011;54381;53.516;49.424;2022-10-16T12:48:04;110.20;;;6.90;;
67546;SDS011;54381;53.516;49.424;2022-10-16T12:50:50;12.25;;;3.90;;
67546;SDS011;54381;53.516;49.424;2022-10-16T12:53:25;43.78;;;8.18;;
67546;SDS011;54381;53.516;49.424;2022-10-16T12:56:03;45.38;;;8.38;;
67546;SDS011;54381;53.516;49.424;2022-10-16T13:04:39;17.90;;;6.57;;
67546;SDS011;54381;53.516;49.424;2022-10-16T13:23:48;19.55;;;9.80;;
67546;SDS011;54381;53.516;49.424;2022-10-16T13:26:25;70.43;;;10.43;;
67546;SDS011;54381;53.516;49.424;2022-10-16T13:29:45;26.45;;;8.25;;
67546;SDS011;54381;53.516;49.424;2022-10-16T13:32:23;23.58;;;8.05;;
67546;SDS011;54381;53.516;49.424;2022-10-16T13:35:02;68.75;;;8.55;;
67546;SDS011;54381;53.516;49.424;2022-10-16T13:37:34;48.72;;;9.18;;
67546;SDS011;54381;53.516;49.424;2022-10-16T13:40:22;100.88;;;11.77;;
67546;SDS011;54381;53.516;49.424;2022-10-16T13:42:55;56.60;;;9.45;;
67546;SDS011;54381;53.516;49.424;2022-10-16T13:45:29;75.47;;;10.23;;
67546;SDS011;54381;53.516;49.424;2022-10-16T13:48:03;105.90;;;11.35;;
67546;SDS011;54381;53.516;49.424;2022-10-16T13:50:40;51.20;;;9.95;;
67546;SDS011;54381;53.516;49.424;2022-10-16T13:53:13;43.45;;;10.10;;
67546;SDS011;54381;53.516;49.424;2022-10-16T13:55:47;54.75;;;10.15;;
67546;SDS011;54381;53.516;49.424;2022-10-16T13:58:19;70.63;;;10.48;;
67546;SDS011;54381;53.516;49.424;2022-10-16T14:00:57;49.65;;;12.63;;
67546;SDS011;54381;53.516;49.424;2022-10-16T14:03:32;114.60;;;33.30;;
67546;SDS011;54381;53.516;49.424;2022-10-16T14:06:14;39.20;;;11.00;;
67546;SDS011;54381;53.516;49.424;2022-10-16T14:08:49;30.45;;;10.30;;
67546;SDS011;54381;53.516;49.424;2022-10-16T14:11:56;36.92;;;10.45;;
67546;SDS011;54381;53.516;49.424;2022-10-16T14:14:34;35.75;;;12.18;;
67546;SDS011;54381;53.516;49.424;2022-10-16T14:17:16;45.88;;;13.93;;
67546;SDS011;54381;53.516;49.424;2022-10-16T14:19:54;215.38;;;20.60;;
67546;SDS011;54381;53.516;49.424;2022-10-16T14:22:35;229.73;;;20.35;;
67546;SDS011;54381;53.516;49.424;2022-10-16T14:30:34;154.98;;;20.05;;
67546;SDS011;54381;53.516;49.424;2022-10-16T14:33:19;172.73;;;20.80;;
67546;SDS011;54381;53.516;49.424;2022-10-16T14:38:42;120.32;;;20.40;;
67546;SDS011;54381;53.516;49.424;2022-10-16T14:41:23;49.50;;;17.20;;
67546;SDS011;54381;53.516;49.424;2022-10-16T14:43:56;51.35;;;18.35;;
67546;SDS011;54381;53.516;49.424;2022-10-16T14:46:37;48.28;;;18.95;;
67546;SDS011;54381;53.516;49.424;2022-10-16T14:51:42;84.10;;;20.23;;
67546;SDS011;54381;53.516;49.424;2022-10-16T14:54:16;59.33;;;18.40;;
67546;SDS011;54381;53.516;49.424;2022-10-16T14:57:00;150.73;;;21.65;;
67546;SDS011;54381;53.516;49.424;2022-10-16T14:59:34;93.35;;;21.50;;
67546;SDS011;54381;53.516;49.424;2022-10-16T15:05:10;149.48;;;24.17;;
67546;SDS011;54381;53.516;49.424;2022-10-16T15:08:01;185.10;;;22.70;;
67546;SDS011;54381;53.516;49.424;2022-10-16T15:10:37;128.60;;;22.77;;
67546;SDS011;54381;53.516;49.424;2022-10-16T15:13:14;92.78;;;23.50;;
67546;SDS011;54381;53.516;49.424;2022-10-16T15:18:17;66.22;;;23.65;;
67546;SDS011;54381;53.516;49.424;2022-10-16T15:20:57;90.85;;;26.40;;
67546;SDS011;54381;53.516;49.424;2022-10-16T15:23:29;202.38;;;30.45;;
67546;SDS011;54381;53.516;49.424;2022-10-16T15:26:00;104.60;;;27.77;;
67546;SDS011;54381;53.516;49.424;2022-10-16T15:28:32;108.72;;;32.65;;
67546;SDS011;54381;53.516;49.424;2022-10-16T15:31:08;77.28;;;28.17;;
67546;SDS011;54381;53.516;49.424;2022-10-16T15:33:40;111.72;;;30.00;;
67546;SDS011;54381;53.516;49.424;2022-10-16T15:36:12;239.80;;;35.88;;
67546;SDS011;54381;53.516;49.424;2022-10-16T15:39:16;121.45;;;28.77;;
67546;SDS011;54381;53.516;49.424;2022-10-16T15:41:51;126.28;;;28.67;;
67546;SDS011;54381;53.516;49.424;2022-10-16T15:44:27;101.22;;;27.92;;
67546;SDS011;54381;53.516;49.424;2022-10-16T15:47:01;99.80;;;28.33;;
67546;SDS011;54381;53.516;49.424;2022-10-16T15:49:32;83.63;;;27.20;;
67546;SDS011;54381;53.516;49.424;2022-10-16T15:52:04;91.82;;;26.40;;
67546;SDS011;54381;53.516;49.424;2022-10-16T15:54:35;68.95;;;25.02;;
67546;SDS011;54381;53.516;49.424;2022-10-16T15:57:07;77.65;;;24.50;;
67546;SDS011;54381;53.516;49.424;2022-10-16T15:59:38;170.23;;;28.58;;
67546;SDS011;54381;53.516;49.424;2022-10-16T16:02:10;177.48;;;26.30;;
67546;SDS011;54381;53.516;49.424;2022-10-16T16:04:41;241.73;;;27.30;;
67546;SDS011;54381;53.516;49.424;2022-10-16T16:07:13;92.35;;;25.90;;
67546;SDS011;54381;53.516;49.424;2022-10-16T16:09:48;177.40;;;26.50;;
67546;SDS011;54381;53.516;49.424;2022-10-16T16:12:19;113.43;;;22.48;;
67546;SDS011;54381;53.516;49.424;2022-10-16T16:14:51;60.60;;;22.08;;
67546;SDS011;54381;53.516;49.424;2022-10-16T16:17:22;82.53;;;22.13;;
67546;SDS011;54381;53.516;49.424;2022-10-16T16:19:55;80.25;;;19.70;;
67546;SDS011;54381;53.516;49.424;2022-10-16T16:22:27;75.05;;;18.88;;
67546;SDS011;54381;53.516;49.424;2022-10-16T16:25:18;280.55;;;23.98;;
67546;SDS011;54381;53.516;49.424;2022-10-16T16:27:50;100.55;;;19.33;;
67546;SDS011;54381;53.516;49.424;2022-10-16T16:30:46;102.18;;;18.77;;
67546;SDS011;54381;53.516;49.424;2022-10-16T16:33:22;66.15;;;19.15;;
67546;SDS011;54381;53.516;49.424;2022-10-16T16:35:59;77.53;;;18.73;;
67546;SDS011;54381;53.516;49.424;2022-10-16T16:38:34;56.80;;;18.00;;
67546;SDS011;54381;53.516;49.424;2022-10-16T16:41:13;61.83;;;18.05;;
67546;SDS011;54381;53.516;49.424;2022-10-16T16:43:46;45.22;;;18.15;;
67546;SDS011;54381;53.516;49.424;2022-10-16T16:46:18;49.22;;;16.45;;
67546;SDS011;54381;53.516;49.424;2022-10-16T16:48:51;73.00;;;18.02;;
67546;SDS011;54381;53.516;49.424;2022-10-16T16:51:25;47.40;;;15.27;;
67546;SDS011;54381;53.516;49.424;2022-10-16T16:54:17;44.85;;;16.75;;
67546;SDS011;54381;53.516;49.424;2022-10-16T16:56:48;60.15;;;16.50;;
67546;SDS011;54381;53.516;49.424;2022-10-16T16:59:20;143.43;;;18.75;;
67546;SDS011;54381;53.516;49.424;2022-10-16T17:01:52;88.53;;;17.38;;
67546;SDS011;54381;53.516;49.424;2022-10-16T17:04:24;50.97;;;16.48;;
67546;SDS011;54381;53.516;49.424;2022-10-16T17:06:55;114.38;;;17.83;;
67546;SDS011;54381;53.516;49.424;2022-10-16T17:09:27;71.93;;;17.92;;
67546;SDS011;54381;53.516;49.424;2022-10-16T17:11:59;69.78;;;18.00;;
67546;SDS011;54381;53.516;49.424;2022-10-16T17:14:38;51.15;;;17.40;;
67546;SDS011;54381;53.516;49.424;2022-10-16T17:17:10;59.60;;;17.05;;
67546;SDS011;54381;53.516;49.424;2022-10-16T17:19:42;50.42;;;17.05;;
67546;SDS011;54381;53.516;49.424;2022-10-16T17:22:13;64.07;;;18.02;;